createdAt,value
2022-10-05T00:04:32.886Z,16.30
2022-10-05T00:14:36.710Z,16.30
2022-10-05T00:24:38.700Z,16.30
2022-10-05T00:34:42.815Z,16.40
2022-10-05T00:44:49.211Z,16.40
2022-10-05T00:55:02.459Z,16.40
2022-10-05T01:05:10.936Z,16.30
2022-10-05T01:15:20.010Z,16.30
2022-10-05T01:25:29.305Z,16.20
2022-10-05T01:35:46.329Z,16.20
2022-10-05T01:45:58.435Z,16.30
2022-10-05T01:56:10.063Z,16.30
2022-10-05T02:06:17.035Z,16.30
2022-10-05T02:16:26.386Z,16.30
2022-10-05T02:26:30.302Z,16.40
2022-10-05T02:36:36.241Z,16.40
2022-10-05T02:46:43.661Z,16.40
2022-10-05T02:56:55.013Z,16.50
2022-10-05T03:07:04.994Z,16.50
2022-10-05T03:17:15.688Z,16.50
2022-10-05T03:27:28.654Z,16.50
2022-10-05T03:37:41.677Z,16.50
2022-10-05T03:47:49.366Z,16.50
2022-10-05T03:57:56.064Z,16.50
2022-10-05T04:08:04.502Z,16.50
2022-10-05T04:18:18.644Z,16.50
2022-10-05T04:28:31.193Z,16.50
2022-10-05T04:39:01.728Z,16.50
2022-10-05T04:49:25.704Z,16.50
2022-10-05T05:00:01.690Z,16.50
2022-10-05T05:10:19.587Z,16.50
2022-10-05T05:20:27.058Z,16.50
2022-10-05T05:30:38.374Z,16.50
2022-10-05T05:40:50.444Z,16.50
2022-10-05T05:51:00.465Z,16.50
2022-10-05T06:01:25.141Z,16.50
2022-10-05T06:11:37.681Z,16.50
2022-10-05T06:21:45.065Z,16.50
2022-10-05T06:32:06.421Z,16.50
2022-10-05T06:42:27.106Z,16.50
2022-10-05T06:52:39.502Z,16.50
2022-10-05T07:02:48.370Z,16.60
2022-10-05T07:13:02.709Z,16.70
2022-10-05T07:23:20.261Z,16.80
2022-10-05T07:33:26.011Z,17.00
2022-10-05T07:43:57.860Z,17.20
2022-10-05T07:54:13.641Z,17.30
2022-10-05T08:04:21.192Z,17.50
2022-10-05T08:14:31.235Z,17.80
2022-10-05T08:24:42.409Z,18.20
2022-10-05T08:34:50.904Z,18.10
2022-10-05T08:45:27.524Z,18.10
2022-10-05T08:56:19.111Z,18.40
2022-10-05T09:18:03.721Z,20.80
2022-10-05T09:28:23.348Z,22.90
2022-10-05T09:38:46.360Z,23.80
2022-10-05T09:49:05.528Z,22.20
2022-10-05T09:59:37.433Z,22.60
2022-10-05T10:09:52.659Z,22.70
2022-10-05T10:20:29.037Z,22.50
2022-10-05T10:31:00.602Z,22.20
2022-10-05T10:41:25.015Z,21.80
2022-10-05T10:52:00.032Z,20.60
2022-10-05T11:02:22.480Z,19.90
2022-10-05T11:13:03.303Z,19.80
2022-10-05T11:23:34.273Z,20.40
2022-10-05T11:34:06.555Z,20.30
2022-10-05T11:44:47.998Z,19.90
2022-10-05T11:55:23.394Z,19.50
2022-10-05T12:05:32.936Z,19.30
2022-10-05T12:15:44.560Z,19.40
2022-10-05T12:25:53.645Z,19.40
2022-10-05T12:36:01.423Z,19.50
2022-10-05T12:46:15.232Z,19.40
2022-10-05T12:56:29.103Z,18.90
2022-10-05T13:06:40.686Z,18.20
2022-10-05T13:16:52.493Z,17.70
2022-10-05T13:27:02.700Z,17.70
2022-10-05T13:37:12.333Z,17.80
2022-10-05T13:47:25.311Z,18.00
2022-10-05T13:57:48.048Z,18.00
2022-10-05T14:07:54.100Z,17.70
2022-10-05T14:17:56.166Z,17.50
2022-10-05T14:28:03.069Z,17.20
2022-10-05T14:38:18.838Z,16.90
2022-10-05T14:48:22.750Z,16.80
2022-10-05T14:58:37.575Z,16.70
2022-10-05T15:08:52.359Z,16.60
2022-10-05T15:19:01.763Z,16.40
2022-10-05T15:29:14.651Z,16.30
2022-10-05T15:39:27.653Z,16.20
2022-10-05T15:49:39.498Z,16.10
2022-10-05T15:59:54.119Z,16.00
2022-10-05T16:10:03.032Z,15.80
2022-10-05T16:20:19.958Z,15.70
2022-10-05T16:30:24.347Z,15.50
2022-10-05T16:40:37.418Z,15.50
2022-10-05T16:50:50.116Z,15.20
2022-10-05T17:01:11.368Z,15.00
2022-10-05T17:11:25.598Z,14.90
2022-10-05T17:21:33.643Z,14.80
2022-10-05T17:32:00.553Z,14.70
2022-10-05T17:42:34.818Z,14.50
2022-10-05T17:52:38.249Z,14.30
2022-10-05T18:02:42.501Z,14.20
2022-10-05T18:12:51.363Z,14.00
2022-10-05T18:22:55.850Z,13.80
2022-10-05T18:33:33.763Z,13.70
2022-10-05T18:43:43.630Z,13.60
2022-10-05T18:53:46.968Z,13.50
2022-10-05T19:04:01.678Z,13.40
2022-10-05T19:14:14.118Z,13.30
2022-10-05T19:24:48.241Z,13.40
2022-10-05T19:35:06.701Z,13.50
2022-10-05T19:45:18.374Z,13.40
2022-10-05T19:55:31.047Z,13.30
2022-10-05T20:05:34.484Z,13.10
2022-10-05T20:15:36.857Z,12.90
2022-10-05T20:25:40.270Z,12.80
2022-10-05T20:35:42.304Z,12.70
2022-10-05T20:45:45.632Z,12.60
2022-10-05T20:55:47.635Z,12.50
2022-10-05T21:05:50.922Z,12.50
2022-10-05T21:15:53.031Z,12.50
2022-10-05T21:25:56.328Z,12.40
2022-10-05T21:35:58.486Z,12.40
2022-10-05T21:46:02.241Z,12.40
2022-10-05T22:06:27.454Z,12.30
2022-10-05T22:16:32.601Z,12.20
2022-10-05T22:26:36.276Z,12.20
2022-10-05T22:36:38.328Z,12.10
2022-10-05T22:46:41.696Z,12.00
2022-10-05T22:56:43.906Z,12.00
2022-10-05T23:06:47.197Z,11.90
2022-10-05T23:16:49.341Z,11.90
2022-10-05T23:26:52.752Z,11.80
2022-10-05T23:36:54.904Z,11.70
2022-10-05T23:46:58.241Z,11.60
2022-10-05T23:57:00.223Z,11.50
